createdAt,value
2019-04-09T00:02:09.716Z,24.40
2019-04-09T00:04:40.259Z,26.07
2019-04-09T00:07:10.345Z,25.10
2019-04-09T00:09:41.359Z,26.97
2019-04-09T00:12:11.991Z,25.37
2019-04-09T00:14:42.596Z,25.17
2019-04-09T00:17:13.372Z,25.50
2019-04-09T00:19:43.914Z,26.50
2019-04-09T00:22:14.629Z,26.57
2019-04-09T00:24:45.581Z,26.47
2019-04-09T00:27:16.323Z,25.53
2019-04-09T00:29:46.831Z,26.53
2019-04-09T00:32:18.439Z,25.47
2019-04-09T00:34:49.179Z,25.37
2019-04-09T00:37:20.674Z,23.73
2019-04-09T00:39:51.486Z,25.30
2019-04-09T00:42:22.041Z,26.17
2019-04-09T00:44:53.195Z,26.50
2019-04-09T00:47:24.219Z,26.00
2019-04-09T00:49:54.790Z,26.00
2019-04-09T00:52:26.473Z,23.73
2019-04-09T00:54:57.127Z,25.37
2019-04-09T00:57:27.632Z,27.20
2019-04-09T00:59:59.112Z,26.23
2019-04-09T01:02:32.369Z,23.13
2019-04-09T01:05:02.783Z,24.47
2019-04-09T01:07:33.377Z,25.33
2019-04-09T01:10:04.099Z,22.97
2019-04-09T01:12:34.733Z,22.93
2019-04-09T01:15:06.614Z,22.60
2019-04-09T01:17:38.075Z,20.77
2019-04-09T01:20:09.257Z,24.03
2019-04-09T01:22:41.350Z,22.37
2019-04-09T01:25:49.089Z,24.40
2019-04-09T01:28:53.588Z,21.20
2019-04-09T01:31:54.969Z,23.10
2019-04-09T01:34:48.094Z,21.57
2019-04-09T01:37:37.722Z,22.47
2019-04-09T01:40:34.154Z,22.50
2019-04-09T01:43:32.475Z,23.17
2019-04-09T01:46:24.610Z,21.77
2019-04-09T01:49:30.002Z,22.70
2019-04-09T01:52:18.266Z,23.87
2019-04-09T01:55:07.719Z,24.60
2019-04-09T01:58:00.261Z,28.70
2019-04-09T02:00:50.864Z,29.47
2019-04-09T02:03:31.978Z,25.87
2019-04-09T02:06:37.046Z,26.97
2019-04-09T02:09:32.380Z,27.17
2019-04-09T02:12:10.273Z,25.60
2019-04-09T02:15:12.559Z,28.80
2019-04-09T02:18:00.447Z,32.20
2019-04-09T02:20:59.797Z,33.07
2019-04-09T02:24:01.111Z,35.30
2019-04-09T02:27:05.620Z,34.13
2019-04-09T02:29:52.022Z,33.27
2019-04-09T02:32:40.575Z,34.17
2019-04-09T02:35:35.103Z,33.23
2019-04-09T02:38:26.139Z,34.60
2019-04-09T02:41:15.614Z,32.97
2019-04-09T02:44:15.681Z,32.23
2019-04-09T02:47:03.172Z,31.50
2019-04-09T02:49:39.367Z,31.60
2019-04-09T02:52:31.761Z,30.50
2019-04-09T02:55:19.933Z,30.87
2019-04-09T02:58:00.334Z,27.57
2019-04-09T03:00:52.666Z,28.43
2019-04-09T03:03:41.870Z,28.20
2019-04-09T03:06:25.785Z,26.97
2019-04-09T03:09:20.525Z,29.37
2019-04-09T03:12:18.956Z,29.23
2019-04-09T03:14:55.907Z,33.63
2019-04-09T03:17:54.420Z,31.70
2019-04-09T03:20:50.678Z,29.70
2019-04-09T03:23:31.263Z,28.97
2019-04-09T03:26:21.871Z,29.80
2019-04-09T03:29:14.549Z,30.20
2019-04-09T03:31:58.583Z,31.63
2019-04-09T03:34:53.086Z,32.77
2019-04-09T03:37:54.711Z,34.70
2019-04-09T03:40:47.196Z,32.33
2019-04-09T03:43:42.702Z,33.43
2019-04-09T03:46:20.769Z,31.00
2019-04-09T03:53:03.856Z,32.87
2019-04-09T03:59:39.068Z,31.80
2019-04-09T04:06:13.787Z,34.50
2019-04-09T04:13:02.344Z,35.97
2019-04-09T04:19:48.241Z,32.30
2019-04-09T04:26:34.740Z,34.40
2019-04-09T04:33:09.292Z,30.23
2019-04-09T04:39:53.245Z,36.00
2019-04-09T04:50:12.808Z,34.60
2019-04-09T04:56:54.331Z,32.97
2019-04-09T05:03:44.523Z,33.07
2019-04-09T05:10:32.290Z,35.20
2019-04-09T05:17:09.939Z,31.90
2019-04-09T05:23:56.241Z,29.53
2019-04-09T05:30:33.864Z,28.20
2019-04-09T05:37:33.155Z,28.03
2019-04-09T05:44:23.084Z,31.13
2019-04-09T05:50:46.001Z,31.30
2019-04-09T05:57:12.244Z,28.40
2019-04-09T06:03:59.643Z,31.37
2019-04-09T06:10:30.322Z,34.27
2019-04-09T06:17:01.085Z,32.70
2019-04-09T06:23:19.631Z,33.17
2019-04-09T06:29:38.355Z,33.70
2019-04-09T06:36:02.540Z,34.93
2019-04-09T06:42:52.705Z,32.13
2019-04-09T06:52:18.606Z,35.80
2019-04-09T06:58:54.515Z,32.67
2019-04-09T07:05:30.315Z,35.90
2019-04-09T07:12:09.377Z,35.73
2019-04-09T07:18:43.781Z,35.57
2019-04-09T07:25:23.929Z,34.33
2019-04-09T07:32:02.815Z,32.40
2019-04-09T07:38:41.948Z,34.43
2019-04-09T07:45:41.516Z,34.07
2019-04-09T07:48:30.067Z,35.87
2019-04-09T07:55:07.052Z,33.47
2019-04-09T08:01:53.968Z,34.60
2019-04-09T08:08:39.617Z,31.10
2019-04-09T08:14:46.949Z,31.30
2019-04-09T08:21:15.015Z,32.67
2019-04-09T08:27:52.975Z,34.63
2019-04-09T08:30:47.234Z,31.70
2019-04-09T08:37:24.569Z,33.77
2019-04-09T08:44:17.130Z,32.63
2019-04-09T08:54:55.592Z,33.53
2019-04-09T09:01:52.826Z,33.27
2019-04-09T09:07:52.806Z,37.23
2019-04-09T09:17:52.307Z,41.37
2019-04-09T09:24:37.434Z,43.03
2019-04-09T09:31:22.528Z,38.90
2019-04-09T09:38:04.953Z,42.07
2019-04-09T09:44:55.989Z,44.37
2019-04-09T09:55:12.960Z,43.07
2019-04-09T10:01:50.319Z,42.70
2019-04-09T10:08:31.146Z,41.37
2019-04-09T10:15:17.431Z,40.60
2019-04-09T10:21:49.761Z,40.13
2019-04-09T10:28:38.403Z,39.07
2019-04-09T10:35:35.784Z,35.63
2019-04-09T10:42:19.645Z,30.87
2019-04-09T10:49:02.813Z,32.17
2019-04-09T10:55:31.122Z,35.53
2019-04-09T11:02:33.687Z,34.97
2019-04-09T11:09:17.726Z,34.80
2019-04-09T11:16:00.739Z,31.43
2019-04-09T11:22:38.666Z,32.43
2019-04-09T11:29:10.274Z,31.53
2019-04-09T11:38:56.294Z,30.17
2019-04-09T11:41:37.476Z,30.67
2019-04-09T11:44:27.539Z,30.63
2019-04-09T11:47:27.357Z,27.93
2019-04-09T11:50:20.295Z,24.20
2019-04-09T11:52:57.917Z,24.03
2019-04-09T11:55:57.779Z,23.70
2019-04-09T11:58:50.886Z,24.43
2019-04-09T12:01:57.964Z,23.73
2019-04-09T12:04:54.171Z,23.60
2019-04-09T12:07:36.548Z,24.33
2019-04-09T12:10:25.973Z,25.40
2019-04-09T12:13:14.636Z,22.63
2019-04-09T12:16:02.731Z,22.10
2019-04-09T12:18:39.922Z,21.83
2019-04-09T12:21:22.059Z,21.80
2019-04-09T12:24:29.733Z,21.23
2019-04-09T12:27:26.382Z,22.30
2019-04-09T12:30:15.279Z,21.23
2019-04-09T12:33:06.646Z,19.87
2019-04-09T12:35:59.048Z,16.63
2019-04-09T12:38:47.462Z,15.93
2019-04-09T12:41:46.235Z,16.03
2019-04-09T12:44:40.281Z,17.77
2019-04-09T12:47:34.693Z,18.20
2019-04-09T12:50:25.055Z,18.17
2019-04-09T12:53:18.235Z,19.40
2019-04-09T12:56:08.986Z,17.23
2019-04-09T12:59:03.100Z,17.73
2019-04-09T13:01:55.300Z,18.30
2019-04-09T13:04:46.836Z,17.80
2019-04-09T13:07:34.143Z,18.20
2019-04-09T13:10:18.467Z,17.57
2019-04-09T13:13:08.639Z,17.40
2019-04-09T13:15:58.796Z,20.33
2019-04-09T13:18:51.168Z,18.77
2019-04-09T13:21:47.596Z,18.50
2019-04-09T13:24:39.086Z,18.03
2019-04-09T13:27:32.451Z,17.67
2019-04-09T13:30:21.539Z,20.17
2019-04-09T13:33:13.137Z,19.83
2019-04-09T13:36:11.282Z,24.47
2019-04-09T13:39:15.608Z,22.63
2019-04-09T13:42:08.771Z,19.13
2019-04-09T13:44:51.465Z,21.63
2019-04-09T13:47:35.280Z,19.07
2019-04-09T13:50:37.015Z,21.10
2019-04-09T13:53:08.738Z,18.70
2019-04-09T13:55:40.676Z,19.27
2019-04-09T13:58:12.086Z,18.40
2019-04-09T14:00:43.038Z,18.33
2019-04-09T14:03:42.394Z,17.40
2019-04-09T14:06:12.965Z,18.27
2019-04-09T14:08:45.556Z,16.00
2019-04-09T14:11:16.520Z,15.60
2019-04-09T14:13:47.958Z,16.10
2019-04-09T14:16:19.063Z,15.37
2019-04-09T14:18:49.644Z,15.70
2019-04-09T14:21:20.312Z,24.43
2019-04-09T14:23:50.892Z,27.87
2019-04-09T14:26:22.506Z,27.13
2019-04-09T14:28:54.425Z,30.67
2019-04-09T14:31:26.262Z,32.97
2019-04-09T14:33:57.646Z,30.40
2019-04-09T14:36:28.672Z,31.20
2019-04-09T14:38:59.995Z,33.07
2019-04-09T14:41:30.819Z,30.83
2019-04-09T14:44:01.540Z,33.00
2019-04-09T14:46:32.149Z,32.30
2019-04-09T14:49:03.632Z,34.33
2019-04-09T14:51:34.656Z,36.03
2019-04-09T14:54:06.287Z,33.73
2019-04-09T14:56:40.232Z,35.53
2019-04-09T14:59:09.609Z,34.17
2019-04-09T15:01:40.409Z,36.10
2019-04-09T15:04:11.099Z,32.07
2019-04-09T15:06:41.761Z,35.37
2019-04-09T15:09:12.745Z,35.40
2019-04-09T15:11:44.041Z,35.50
2019-04-09T15:14:15.491Z,33.50
2019-04-09T15:16:46.868Z,33.20
2019-04-09T15:19:17.809Z,34.67
2019-04-09T15:22:10.440Z,35.87
2019-04-09T15:24:42.182Z,33.03
2019-04-09T15:27:13.165Z,33.70
2019-04-09T15:29:44.112Z,34.40
2019-04-09T15:32:17.049Z,34.77
2019-04-09T15:34:47.819Z,37.80
2019-04-09T15:37:19.208Z,35.60
2019-04-09T15:39:50.230Z,34.73
2019-04-09T15:42:21.479Z,37.13
2019-04-09T15:44:52.644Z,34.20
2019-04-09T15:47:23.314Z,34.23
2019-04-09T15:49:54.660Z,33.20
2019-04-09T15:52:25.918Z,32.90
2019-04-09T15:54:57.041Z,31.57
2019-04-09T15:57:27.863Z,31.77
2019-04-09T15:59:59.485Z,33.40
2019-04-09T16:02:30.339Z,34.17
2019-04-09T16:05:01.078Z,33.30
2019-04-09T16:07:31.714Z,33.73
2019-04-09T16:10:02.319Z,32.40
2019-04-09T16:12:32.908Z,32.60
2019-04-09T16:15:06.242Z,32.70
2019-04-09T16:17:35.819Z,73.00
2019-04-09T16:20:07.035Z,32.10
2019-04-09T16:22:38.249Z,33.50
2019-04-09T16:25:09.744Z,32.40
2019-04-09T16:27:40.506Z,33.80
2019-04-09T16:30:11.354Z,34.27
2019-04-09T16:32:42.058Z,33.00
2019-04-09T16:35:12.775Z,32.50
2019-04-09T16:37:43.667Z,32.73
2019-04-09T16:40:14.967Z,32.93
2019-04-09T16:42:46.877Z,33.13
2019-04-09T16:45:19.582Z,33.40
2019-04-09T16:47:51.249Z,31.50
2019-04-09T16:50:21.832Z,30.60
2019-04-09T16:52:53.020Z,30.83
2019-04-09T16:55:24.197Z,32.87
2019-04-09T16:58:02.588Z,33.57
2019-04-09T17:00:28.395Z,30.00
2019-04-09T17:02:59.721Z,28.80
2019-04-09T17:05:31.939Z,27.43
2019-04-09T17:08:02.714Z,28.63
2019-04-09T17:10:35.181Z,25.47
2019-04-09T17:13:06.673Z,24.10
2019-04-09T17:15:37.865Z,26.03
2019-04-09T17:18:08.659Z,24.10
2019-04-09T17:20:40.096Z,24.10
2019-04-09T17:23:10.867Z,24.57
2019-04-09T17:25:41.412Z,20.90
2019-04-09T17:28:12.285Z,20.93
2019-04-09T17:30:43.010Z,21.13
2019-04-09T17:33:17.037Z,20.53
2019-04-09T17:35:49.021Z,20.80
2019-04-09T17:38:19.830Z,21.10
2019-04-09T17:40:50.493Z,20.60
2019-04-09T17:43:21.932Z,18.83
2019-04-09T17:45:57.020Z,18.27
2019-04-09T17:48:28.388Z,17.67
2019-04-09T17:50:58.988Z,16.77
2019-04-09T17:53:33.320Z,17.70
2019-04-09T17:56:03.932Z,18.07
2019-04-09T17:58:34.633Z,18.60
2019-04-09T18:01:07.003Z,19.43
2019-04-09T18:03:37.764Z,19.23
2019-04-09T18:06:08.338Z,18.70
2019-04-09T18:08:38.993Z,19.50
2019-04-09T18:11:09.892Z,17.53
2019-04-09T18:13:40.557Z,16.47
2019-04-09T18:16:11.889Z,18.00
2019-04-09T18:18:42.539Z,16.20
2019-04-09T18:21:14.296Z,17.97
2019-04-09T18:23:44.971Z,18.77
2019-04-09T18:26:16.682Z,16.50
2019-04-09T18:28:47.423Z,13.13
2019-04-09T18:31:26.501Z,9.60
2019-04-09T18:33:50.538Z,6.90
2019-04-09T18:36:22.886Z,7.93
2019-04-09T18:38:53.494Z,6.37
2019-04-09T18:41:24.207Z,6.67
2019-04-09T18:43:58.163Z,7.27
2019-04-09T18:46:28.762Z,8.20
2019-04-09T18:48:59.419Z,8.53
2019-04-09T18:51:31.247Z,8.93
2019-04-09T18:54:03.096Z,7.90
2019-04-09T18:56:33.829Z,8.50
2019-04-09T18:59:05.321Z,8.73
2019-04-09T19:01:36.058Z,8.90
2019-04-09T19:04:14.058Z,9.53
2019-04-09T19:06:40.828Z,10.93
2019-04-09T19:09:14.959Z,9.10
2019-04-09T19:11:45.699Z,9.13
2019-04-09T19:14:16.285Z,8.70
2019-04-09T19:16:46.916Z,8.70
2019-04-09T19:19:18.412Z,7.80
2019-04-09T19:21:49.278Z,9.10
2019-04-09T19:24:20.942Z,7.80
2019-04-09T19:26:51.528Z,9.10
2019-04-09T19:29:22.494Z,9.50
2019-04-09T19:31:53.758Z,8.20
2019-04-09T19:34:25.621Z,8.83
2019-04-09T19:36:56.932Z,8.23
2019-04-09T19:39:28.167Z,9.60
2019-04-09T19:42:10.201Z,8.97
2019-04-09T19:44:31.136Z,9.13
2019-04-09T19:47:02.809Z,9.13
2019-04-09T19:49:33.465Z,9.63
2019-04-09T19:52:04.213Z,9.90
2019-04-09T19:54:35.666Z,10.00
2019-04-09T19:57:06.324Z,10.97
2019-04-09T19:59:37.029Z,10.50
2019-04-09T20:02:08.229Z,10.73
2019-04-09T20:04:38.985Z,10.33
2019-04-09T20:07:10.127Z,9.23
2019-04-09T20:09:40.776Z,10.30
2019-04-09T20:12:11.362Z,10.17
2019-04-09T20:14:42.789Z,9.53
2019-04-09T20:17:15.531Z,11.63
2019-04-09T20:19:48.296Z,31.37
2019-04-09T20:22:21.240Z,11.20
2019-04-09T20:24:53.204Z,11.77
2019-04-09T20:27:24.007Z,11.10
2019-04-09T20:29:55.381Z,10.20
2019-04-09T20:32:26.938Z,10.93
2019-04-09T20:35:06.146Z,11.07
2019-04-09T20:37:32.933Z,13.00
2019-04-09T20:40:03.625Z,11.93
2019-04-09T20:42:34.961Z,11.27
2019-04-09T20:45:06.496Z,13.00
2019-04-09T20:47:37.979Z,13.00
2019-04-09T20:50:09.450Z,11.27
2019-04-09T20:52:40.046Z,12.23
2019-04-09T20:55:15.771Z,11.40
2019-04-09T20:57:47.191Z,12.50
2019-04-09T21:00:44.898Z,11.80
2019-04-09T21:03:53.936Z,12.83
2019-04-09T21:06:35.059Z,11.70
2019-04-09T21:09:08.358Z,12.80
2019-04-09T21:11:38.936Z,13.87
2019-04-09T21:14:09.731Z,14.70
2019-04-09T21:16:40.685Z,13.47
2019-04-09T21:19:12.114Z,13.07
2019-04-09T21:21:43.539Z,13.70
2019-04-09T21:24:15.180Z,14.67
2019-04-09T21:26:46.876Z,15.90
2019-04-09T21:29:19.477Z,14.80
2019-04-09T21:31:49.804Z,14.20
2019-04-09T21:34:20.378Z,16.30
2019-04-09T21:36:53.732Z,16.03
2019-04-09T21:39:25.149Z,17.53
2019-04-09T21:41:55.832Z,16.70
2019-04-09T21:44:26.854Z,16.63
2019-04-09T21:46:58.260Z,16.67
2019-04-09T21:49:29.688Z,17.10
2019-04-09T21:52:00.294Z,17.63
2019-04-09T21:54:31.572Z,16.93
2019-04-09T21:57:03.060Z,16.20
2019-04-09T21:59:33.696Z,16.00
2019-04-09T22:02:05.102Z,18.47
2019-04-09T22:04:35.803Z,18.53
2019-04-09T22:07:08.386Z,24.70
2019-04-09T22:09:39.054Z,16.77
2019-04-09T22:12:09.658Z,17.87
2019-04-09T22:14:41.306Z,23.60
2019-04-09T22:17:14.045Z,17.27
2019-04-09T22:19:48.526Z,17.07
2019-04-09T22:22:19.214Z,17.30
2019-04-09T22:24:49.755Z,18.47
2019-04-09T22:27:20.526Z,19.00
2019-04-09T22:29:51.706Z,18.50
2019-04-09T22:32:22.322Z,19.80
2019-04-09T22:34:54.766Z,20.30
2019-04-09T22:37:26.367Z,21.87
2019-04-09T22:39:56.941Z,21.37
2019-04-09T22:42:27.623Z,19.57
2019-04-09T22:44:58.781Z,20.67
2019-04-09T22:47:31.266Z,22.77
2019-04-09T22:50:01.915Z,22.23
2019-04-09T22:52:34.374Z,24.77
2019-04-09T22:55:05.656Z,25.87
2019-04-09T22:57:36.337Z,25.07
2019-04-09T23:00:14.439Z,26.37
2019-04-09T23:02:54.374Z,27.03
2019-04-09T23:06:04.408Z,24.50
2019-04-09T23:08:36.902Z,29.80
2019-04-09T23:11:28.588Z,26.97
2019-04-09T23:13:59.794Z,28.20
2019-04-09T23:16:31.013Z,28.87
2019-04-09T23:19:01.652Z,29.27
2019-04-09T23:21:32.210Z,30.50
2019-04-09T23:24:03.769Z,31.30
2019-04-09T23:26:35.358Z,29.07
2019-04-09T23:29:06.103Z,28.73
2019-04-09T23:31:36.928Z,30.50
2019-04-09T23:34:08.074Z,28.20
2019-04-09T23:36:38.658Z,32.17
2019-04-09T23:39:10.285Z,27.40
2019-04-09T23:41:41.815Z,31.80
2019-04-09T23:44:12.593Z,30.40
2019-04-09T23:46:45.979Z,29.00
2019-04-09T23:49:17.050Z,32.50
2019-04-09T23:51:47.943Z,32.73
2019-04-09T23:54:18.560Z,32.40
2019-04-09T23:56:49.709Z,33.60
2019-04-09T23:59:20.363Z,32.93
